createdAt,value
2022-11-05T00:02:23.978Z,0.55
2022-11-05T00:05:09.090Z,0.50
2022-11-05T00:08:04.793Z,0.50
2022-11-05T00:10:34.395Z,0.40
2022-11-05T00:13:19.477Z,0.30
2022-11-05T00:23:19.495Z,0.50
2022-11-05T00:29:26.746Z,0.53
2022-11-05T00:31:53.235Z,0.40
2022-11-05T00:34:19.665Z,0.85
2022-11-05T00:36:46.653Z,0.70
2022-11-05T00:39:55.641Z,0.65
2022-11-05T00:42:40.833Z,0.60
2022-11-05T00:45:07.629Z,0.30
2022-11-05T00:47:52.706Z,0.32
2022-11-05T00:50:21.577Z,0.40
2022-11-05T00:52:56.607Z,0.60
2022-11-05T00:55:41.981Z,0.40
2022-11-05T00:58:17.472Z,0.50
2022-11-05T01:00:48.721Z,0.60
2022-11-05T01:07:05.828Z,0.30
2022-11-05T01:09:32.461Z,0.20
2022-11-05T01:11:58.897Z,0.20
2022-11-05T01:14:25.363Z,0.30
2022-11-05T01:16:51.769Z,0.22
2022-11-05T01:19:18.225Z,0.25
2022-11-05T01:21:44.621Z,0.37
2022-11-05T01:24:11.101Z,0.32
2022-11-05T01:26:37.601Z,0.45
2022-11-05T01:29:04.077Z,0.30
2022-11-05T01:31:30.587Z,0.50
2022-11-05T01:33:57.081Z,0.37
2022-11-05T01:36:23.568Z,0.38
2022-11-05T01:38:51.631Z,0.45
2022-11-05T01:45:21.253Z,0.30
2022-11-05T01:48:10.915Z,0.30
2022-11-05T01:50:47.417Z,0.30
2022-11-05T01:57:08.948Z,0.47
2022-11-05T01:59:39.761Z,0.30
2022-11-05T02:02:08.284Z,0.40
2022-11-05T02:04:39.844Z,0.30
2022-11-05T02:07:09.184Z,0.60
2022-11-05T02:09:57.416Z,0.50
2022-11-05T02:12:24.249Z,0.60
2022-11-05T02:14:50.687Z,0.50
2022-11-05T02:17:19.850Z,0.38
2022-11-05T02:20:20.557Z,0.50
2022-11-05T02:23:04.549Z,0.63
2022-11-05T02:26:04.897Z,0.57
2022-11-05T02:28:37.467Z,0.50
2022-11-05T02:31:17.605Z,0.55
2022-11-05T02:34:05.785Z,0.55
2022-11-05T02:36:49.702Z,0.38
2022-11-05T02:39:37.740Z,0.28
2022-11-05T02:42:22.320Z,0.37
2022-11-05T02:44:51.652Z,0.40
2022-11-05T02:47:21.181Z,0.60
2022-11-05T02:50:14.569Z,0.63
2022-11-05T02:52:49.636Z,0.50
2022-11-05T02:55:37.372Z,0.53
2022-11-05T02:58:05.854Z,0.50
2022-11-05T03:00:52.576Z,0.70
2022-11-05T03:03:40.413Z,1.08
2022-11-05T03:06:25.371Z,1.10
2022-11-05T03:09:38.923Z,0.47
2022-11-05T03:12:36.237Z,0.90
2022-11-05T03:15:27.564Z,1.00
2022-11-05T03:18:11.404Z,0.45
2022-11-05T03:20:52.096Z,0.45
2022-11-05T03:23:41.738Z,0.53
2022-11-05T03:26:17.589Z,0.45
2022-11-05T03:28:50.206Z,0.35
2022-11-05T03:31:18.660Z,0.70
2022-11-05T03:33:48.110Z,0.70
2022-11-05T03:36:22.314Z,0.40
2022-11-05T03:38:52.323Z,0.73
2022-11-05T03:41:21.686Z,0.98
2022-11-05T03:43:52.051Z,1.27
2022-11-05T03:46:23.152Z,0.90
2022-11-05T03:48:53.654Z,0.77
2022-11-05T03:51:32.448Z,0.57
2022-11-05T03:54:02.345Z,0.70
2022-11-05T03:56:57.674Z,0.60
2022-11-05T03:59:25.332Z,0.77
2022-11-05T04:01:51.984Z,0.60
2022-11-05T04:04:18.511Z,1.08
2022-11-05T04:07:03.558Z,1.13
2022-11-05T04:09:48.665Z,1.35
2022-11-05T04:12:33.880Z,1.55
2022-11-05T04:15:00.469Z,1.40
2022-11-05T04:17:26.949Z,1.15
2022-11-05T04:20:11.980Z,1.30
2022-11-05T04:22:57.088Z,1.45
2022-11-05T04:25:23.686Z,1.60
2022-11-05T04:27:50.176Z,1.37
2022-11-05T04:30:18.479Z,1.83
2022-11-05T04:33:06.712Z,1.90
2022-11-05T04:35:38.722Z,1.80
2022-11-05T04:38:07.472Z,1.98
2022-11-05T04:40:34.405Z,2.00
2022-11-05T04:43:01.201Z,1.52
2022-11-05T04:45:30.090Z,1.80
2022-11-05T04:47:56.782Z,1.90
2022-11-05T04:50:23.648Z,1.60
2022-11-05T04:52:50.193Z,1.53
2022-11-05T04:55:17.012Z,1.60
2022-11-05T04:57:43.868Z,1.90
2022-11-05T05:00:11.325Z,1.67
2022-11-05T05:02:37.857Z,1.70
2022-11-05T05:05:04.822Z,1.83
2022-11-05T05:07:32.922Z,1.98
2022-11-05T05:09:59.751Z,1.75
2022-11-05T05:12:26.157Z,2.00
2022-11-05T05:14:52.614Z,1.80
2022-11-05T05:17:19.124Z,1.90
2022-11-05T05:20:04.280Z,2.00
2022-11-05T05:22:30.716Z,2.13
2022-11-05T05:24:57.303Z,1.83
2022-11-05T05:27:24.243Z,1.85
2022-11-05T05:29:50.714Z,2.03
2022-11-05T05:32:17.213Z,1.88
2022-11-05T05:34:43.616Z,2.00
2022-11-05T05:37:10.141Z,1.80
2022-11-05T05:39:36.561Z,1.70
2022-11-05T05:42:03.069Z,1.60
2022-11-05T05:44:29.469Z,1.88
2022-11-05T05:46:55.899Z,1.52
2022-11-05T05:49:22.341Z,1.77
2022-11-05T05:51:49.819Z,1.73
2022-11-05T05:54:16.571Z,1.70
2022-11-05T05:56:44.403Z,1.90
2022-11-05T05:59:11.002Z,1.60
2022-11-05T06:01:37.815Z,1.80
2022-11-05T06:04:04.520Z,1.70
2022-11-05T06:06:30.947Z,1.33
2022-11-05T06:08:57.438Z,1.23
2022-11-05T06:11:25.257Z,1.27
2022-11-05T06:13:52.023Z,1.38
2022-11-05T06:16:21.212Z,1.38
2022-11-05T06:18:48.072Z,1.17
2022-11-05T06:21:17.033Z,1.30
2022-11-05T06:23:44.965Z,1.67
2022-11-05T06:26:14.409Z,1.45
2022-11-05T06:28:42.131Z,1.40
2022-11-05T06:31:13.340Z,1.40
2022-11-05T06:33:40.799Z,1.67
2022-11-05T06:36:08.657Z,1.27
2022-11-05T06:38:36.741Z,1.48
2022-11-05T06:41:09.816Z,1.50
2022-11-05T06:43:37.267Z,1.40
2022-11-05T06:46:05.633Z,1.60
2022-11-05T06:48:32.484Z,1.75
2022-11-05T06:50:58.949Z,1.67
2022-11-05T06:53:26.122Z,1.83
2022-11-05T06:55:52.576Z,1.60
2022-11-05T06:58:19.210Z,1.65
2022-11-05T07:00:45.846Z,1.73
2022-11-05T07:03:13.401Z,1.52
2022-11-05T07:05:43.807Z,1.90
2022-11-05T07:08:10.432Z,1.60
2022-11-05T07:10:36.940Z,1.95
2022-11-05T07:13:08.021Z,1.90
2022-11-05T07:15:35.554Z,1.75
2022-11-05T07:18:02.392Z,2.13
2022-11-05T07:20:33.582Z,1.90
2022-11-05T07:23:12.721Z,1.90
2022-11-05T07:25:40.866Z,2.00
2022-11-05T07:28:08.903Z,2.20
2022-11-05T07:30:36.444Z,2.15
2022-11-05T07:33:03.753Z,2.30
2022-11-05T07:35:30.272Z,2.28
2022-11-05T07:37:57.044Z,2.55
2022-11-05T07:40:25.794Z,2.30
2022-11-05T07:42:55.307Z,2.65
2022-11-05T07:45:22.427Z,2.73
2022-11-05T07:47:51.644Z,2.58
2022-11-05T07:50:19.432Z,3.13
2022-11-05T07:52:46.125Z,2.72
2022-11-05T07:55:13.372Z,3.00
2022-11-05T07:57:44.782Z,2.70
2022-11-05T08:00:16.609Z,2.72
2022-11-05T08:02:43.491Z,2.80
2022-11-05T08:05:10.824Z,3.03
2022-11-05T08:07:37.380Z,2.97
2022-11-05T08:10:04.529Z,3.20
2022-11-05T08:12:33.584Z,2.83
2022-11-05T08:15:00.021Z,2.80
2022-11-05T08:17:26.590Z,2.78
2022-11-05T08:19:53.282Z,2.80
2022-11-05T08:22:19.821Z,3.10
2022-11-05T08:24:46.383Z,3.00
2022-11-05T08:27:13.240Z,3.25
2022-11-05T08:29:39.779Z,2.83
2022-11-05T08:32:06.228Z,2.80
2022-11-05T08:34:32.782Z,3.03
2022-11-05T08:37:01.062Z,2.65
2022-11-05T08:39:27.757Z,2.83
2022-11-05T08:41:54.368Z,2.35
2022-11-05T08:44:20.819Z,2.95
2022-11-05T08:46:47.358Z,2.90
2022-11-05T08:49:14.161Z,2.63
2022-11-05T08:51:40.630Z,3.63
2022-11-05T08:54:07.268Z,2.67
2022-11-05T08:56:33.781Z,3.38
2022-11-05T08:59:00.949Z,2.33
2022-11-05T09:01:27.538Z,2.55
2022-11-05T09:03:54.175Z,2.90
2022-11-05T09:06:20.672Z,2.85
2022-11-05T09:08:47.403Z,2.75
2022-11-05T09:11:14.149Z,2.57
2022-11-05T09:13:40.623Z,2.58
2022-11-05T09:16:13.619Z,3.05
2022-11-05T09:18:40.127Z,2.83
2022-11-05T09:21:06.644Z,3.00
2022-11-05T09:23:33.073Z,2.70
2022-11-05T09:25:59.557Z,3.08
2022-11-05T09:28:26.074Z,2.70
2022-11-05T09:30:53.297Z,3.08
2022-11-05T09:33:23.137Z,2.63
2022-11-05T09:35:49.851Z,2.70
2022-11-05T09:38:16.368Z,2.67
2022-11-05T09:40:54.821Z,3.17
2022-11-05T09:43:31.428Z,2.83
2022-11-05T09:46:01.005Z,3.17
2022-11-05T09:48:30.662Z,2.83
2022-11-05T09:50:58.284Z,3.00
2022-11-05T09:53:25.528Z,2.92
2022-11-05T09:55:56.386Z,3.17
2022-11-05T09:58:43.549Z,3.15
2022-11-05T10:01:23.625Z,2.90
2022-11-05T10:03:53.999Z,2.95
2022-11-05T10:06:24.692Z,2.90
2022-11-05T10:09:19.713Z,2.85
2022-11-05T10:11:55.011Z,2.85
2022-11-05T10:14:31.951Z,2.70
2022-11-05T10:17:03.979Z,2.50
2022-11-05T10:19:44.235Z,1.83
2022-11-05T10:22:13.588Z,2.25
2022-11-05T10:24:43.786Z,2.13
2022-11-05T10:27:36.828Z,1.90
2022-11-05T10:30:04.065Z,1.73
2022-11-05T10:32:37.389Z,1.60
2022-11-05T10:35:06.290Z,1.90
2022-11-05T10:37:36.991Z,1.92
2022-11-05T10:40:46.652Z,2.10
2022-11-05T10:43:20.269Z,2.08
2022-11-05T10:45:57.326Z,2.45
2022-11-05T10:48:53.047Z,2.10
2022-11-05T10:51:19.516Z,1.90
2022-11-05T10:53:57.343Z,2.10
2022-11-05T10:56:38.064Z,1.80
2022-11-05T10:59:18.113Z,1.80
2022-11-05T11:01:44.765Z,2.10
2022-11-05T11:04:24.284Z,1.80
2022-11-05T11:06:53.736Z,1.50
2022-11-05T11:09:22.534Z,1.98
2022-11-05T11:11:56.979Z,2.03
2022-11-05T11:14:23.460Z,2.13
2022-11-05T11:16:51.719Z,1.73
2022-11-05T11:19:21.400Z,2.20
2022-11-05T11:22:14.749Z,1.83
2022-11-05T11:24:44.239Z,2.13
2022-11-05T11:27:33.186Z,1.98
2022-11-05T11:30:02.162Z,1.67
2022-11-05T11:32:36.019Z,1.90
2022-11-05T11:35:04.063Z,2.05
2022-11-05T11:37:35.641Z,1.88
2022-11-05T11:40:24.351Z,1.92
2022-11-05T11:42:57.785Z,1.77
2022-11-05T11:45:32.237Z,1.70
2022-11-05T11:48:04.196Z,1.98
2022-11-05T11:50:43.291Z,1.95
2022-11-05T11:53:22.062Z,1.63
2022-11-05T11:56:03.494Z,1.45
2022-11-05T11:58:49.594Z,1.77
2022-11-05T12:01:43.374Z,1.70
2022-11-05T12:04:13.268Z,1.73
2022-11-05T12:06:57.407Z,1.65
2022-11-05T12:09:47.217Z,2.28
2022-11-05T12:12:16.254Z,1.87
2022-11-05T12:14:46.794Z,1.88
2022-11-05T12:17:25.634Z,2.03
2022-11-05T12:20:07.708Z,1.60
2022-11-05T12:22:51.706Z,2.58
2022-11-05T12:25:36.920Z,2.27
2022-11-05T12:28:10.648Z,1.92
2022-11-05T12:30:46.211Z,2.10
2022-11-05T12:33:23.919Z,2.53
2022-11-05T12:35:58.232Z,2.38
2022-11-05T12:38:55.669Z,3.00
2022-11-05T12:41:31.308Z,2.20
2022-11-05T12:44:33.172Z,2.50
2022-11-05T12:47:07.386Z,2.15
2022-11-05T12:50:14.187Z,2.35
2022-11-05T12:53:01.966Z,2.20
2022-11-05T12:55:36.672Z,1.80
2022-11-05T12:58:11.777Z,2.00
2022-11-05T13:00:44.452Z,1.30
2022-11-05T13:03:24.378Z,1.45
2022-11-05T13:06:04.507Z,1.50
2022-11-05T13:08:54.762Z,1.70
2022-11-05T13:11:28.240Z,1.58
2022-11-05T13:14:03.413Z,1.33
2022-11-05T13:16:35.978Z,2.05
2022-11-05T13:19:37.382Z,1.10
2022-11-05T13:22:12.966Z,2.00
2022-11-05T13:24:48.457Z,1.50
2022-11-05T13:27:49.323Z,1.85
2022-11-05T13:30:22.879Z,2.03
2022-11-05T13:32:58.604Z,1.60
2022-11-05T13:35:35.508Z,1.92
2022-11-05T13:38:25.002Z,2.05
2022-11-05T13:41:16.323Z,1.95
2022-11-05T13:44:10.695Z,1.63
2022-11-05T13:46:59.900Z,1.40
2022-11-05T13:49:29.352Z,2.40
2022-11-05T13:52:03.758Z,2.60
2022-11-05T13:54:30.101Z,2.25
2022-11-05T13:57:10.688Z,2.28
2022-11-05T14:00:01.620Z,2.57
2022-11-05T14:02:40.046Z,2.13
2022-11-05T14:05:08.132Z,2.30
2022-11-05T14:07:37.987Z,2.70
2022-11-05T14:10:15.794Z,1.95
2022-11-05T14:12:49.657Z,1.97
2022-11-05T14:15:30.526Z,2.03
2022-11-05T14:18:02.644Z,1.92
2022-11-05T14:20:31.953Z,2.53
2022-11-05T14:23:23.293Z,6.95
2022-11-05T14:26:16.310Z,6.97
2022-11-05T14:28:44.527Z,10.57
2022-11-05T14:31:20.163Z,12.52
2022-11-05T14:34:19.382Z,8.25
2022-11-05T14:37:02.404Z,11.45
2022-11-05T14:39:30.980Z,41.73
2022-11-05T14:42:17.065Z,26.88
2022-11-05T14:45:12.943Z,28.33
2022-11-05T14:47:44.376Z,62.53
2022-11-05T14:50:42.031Z,74.93
2022-11-05T14:53:29.983Z,51.90
2022-11-05T14:59:52.501Z,24.52
2022-11-05T15:02:24.695Z,82.38
2022-11-05T15:05:35.949Z,31.90
2022-11-05T15:12:09.131Z,23.08
2022-11-05T15:14:54.876Z,31.25
2022-11-05T15:17:30.824Z,29.05
2022-11-05T15:20:40.612Z,21.48
2022-11-05T15:23:12.742Z,10.97
2022-11-05T15:26:01.308Z,12.63
2022-11-05T15:28:32.553Z,19.10
2022-11-05T15:31:02.395Z,41.28
2022-11-05T15:33:29.834Z,22.30
2022-11-05T15:36:07.635Z,63.30
2022-11-05T15:38:35.151Z,31.35
2022-11-05T15:41:13.902Z,28.50
2022-11-05T15:43:50.613Z,76.45
2022-11-05T15:46:25.609Z,32.78
2022-11-05T15:48:54.603Z,29.30
2022-11-05T15:51:24.275Z,30.27
2022-11-05T15:56:45.808Z,40.78
2022-11-05T15:59:18.572Z,43.70
2022-11-05T16:01:52.330Z,41.40
2022-11-05T16:04:28.763Z,17.52
2022-11-05T16:07:00.676Z,36.33
2022-11-05T16:09:30.183Z,16.27
2022-11-05T16:12:36.071Z,22.70
2022-11-05T16:18:33.842Z,33.55
2022-11-05T16:21:05.020Z,10.40
2022-11-05T16:23:45.244Z,8.30
2022-11-05T16:27:01.715Z,9.40
2022-11-05T16:29:32.966Z,5.90
2022-11-05T16:32:02.836Z,8.80
2022-11-05T16:34:35.668Z,6.53
2022-11-05T16:37:03.633Z,8.38
2022-11-05T16:39:30.207Z,6.28
2022-11-05T16:41:56.651Z,5.50
2022-11-05T16:44:23.355Z,7.20
2022-11-05T16:46:50.423Z,5.40
2022-11-05T16:49:17.828Z,6.13
2022-11-05T16:51:44.633Z,8.77
2022-11-05T16:54:11.155Z,18.30
2022-11-05T16:56:39.862Z,7.85
2022-11-05T16:59:09.422Z,10.35
2022-11-05T17:01:42.530Z,15.50
2022-11-05T17:04:11.950Z,16.85
2022-11-05T17:06:38.390Z,15.20
2022-11-05T17:09:04.868Z,17.95
2022-11-05T17:11:31.342Z,14.25
2022-11-05T17:13:57.833Z,14.23
2022-11-05T17:16:24.377Z,9.57
2022-11-05T17:18:50.965Z,12.30
2022-11-05T17:21:17.396Z,7.28
2022-11-05T17:23:43.844Z,13.27
2022-11-05T17:26:12.146Z,5.97
2022-11-05T17:28:40.502Z,4.78
2022-11-05T17:31:09.749Z,4.90
2022-11-05T17:33:36.532Z,4.90
2022-11-05T17:36:07.888Z,5.20
2022-11-05T17:38:34.527Z,5.20
2022-11-05T17:41:01.568Z,5.32
2022-11-05T17:43:28.022Z,5.67
2022-11-05T17:45:59.977Z,9.77
2022-11-05T17:48:29.651Z,6.53
2022-11-05T17:50:57.209Z,4.00
2022-11-05T17:53:23.699Z,3.40
2022-11-05T17:55:50.212Z,3.00
2022-11-05T17:58:16.735Z,3.35
2022-11-05T18:00:45.449Z,3.15
2022-11-05T18:03:12.358Z,3.08
2022-11-05T18:05:40.005Z,2.85
2022-11-05T18:08:07.448Z,3.53
2022-11-05T18:10:37.710Z,3.28
2022-11-05T18:13:04.553Z,2.83
2022-11-05T18:15:31.190Z,3.00
2022-11-05T18:17:57.644Z,3.90
2022-11-05T18:20:24.061Z,3.93
2022-11-05T18:22:51.371Z,3.22
2022-11-05T18:25:18.129Z,3.05
2022-11-05T18:27:44.621Z,2.67
2022-11-05T18:30:14.067Z,2.85
2022-11-05T18:32:41.024Z,2.50
2022-11-05T18:35:07.877Z,3.15
2022-11-05T18:37:34.483Z,2.85
2022-11-05T18:40:00.993Z,3.67
2022-11-05T18:42:27.477Z,3.10
2022-11-05T18:44:53.925Z,3.57
2022-11-05T18:47:20.395Z,3.30
2022-11-05T18:49:46.870Z,3.40
2022-11-05T18:52:13.551Z,2.97
2022-11-05T18:54:40.066Z,3.00
2022-11-05T18:57:06.643Z,2.57
2022-11-05T18:59:38.572Z,2.70
2022-11-05T19:02:07.572Z,3.35
2022-11-05T19:04:37.451Z,3.45
2022-11-05T19:07:05.568Z,3.10
2022-11-05T19:09:34.275Z,3.30
2022-11-05T19:12:01.709Z,3.22
2022-11-05T19:14:29.990Z,2.63
2022-11-05T19:16:57.641Z,3.05
2022-11-05T19:19:24.266Z,2.80
2022-11-05T19:21:51.387Z,3.17
2022-11-05T19:24:17.986Z,2.65
2022-11-05T19:26:44.941Z,2.75
2022-11-05T19:29:11.547Z,2.28
2022-11-05T19:31:38.545Z,2.90
2022-11-05T19:34:05.708Z,2.70
2022-11-05T19:36:33.284Z,3.10
2022-11-05T19:39:03.529Z,2.60
2022-11-05T19:41:30.186Z,6.07
2022-11-05T19:43:58.071Z,3.90
2022-11-05T19:46:25.302Z,3.80
2022-11-05T19:48:51.972Z,4.72
2022-11-05T19:51:25.058Z,5.47
2022-11-05T19:53:52.909Z,6.63
2022-11-05T19:56:22.821Z,3.55
2022-11-05T19:58:49.896Z,2.87
2022-11-05T20:01:18.215Z,3.35
2022-11-05T20:03:45.758Z,3.15
2022-11-05T20:06:21.492Z,3.55
2022-11-05T20:09:15.158Z,3.92
2022-11-05T20:11:39.294Z,3.33
2022-11-05T20:14:06.860Z,3.30
2022-11-05T20:16:38.173Z,3.20
2022-11-05T20:19:07.067Z,3.10
2022-11-05T20:21:34.044Z,3.38
2022-11-05T20:24:00.607Z,3.20
2022-11-05T20:26:27.547Z,2.85
2022-11-05T20:28:54.276Z,2.70
2022-11-05T20:31:21.615Z,2.70
2022-11-05T20:33:48.207Z,2.85
2022-11-05T20:36:19.594Z,3.00
2022-11-05T20:38:58.215Z,2.72
2022-11-05T20:41:26.215Z,3.45
2022-11-05T20:43:52.914Z,2.88
2022-11-05T20:46:21.251Z,2.67
2022-11-05T20:48:47.996Z,2.70
2022-11-05T20:51:17.103Z,2.80
2022-11-05T20:53:44.349Z,3.15
2022-11-05T20:56:25.037Z,2.78
2022-11-05T20:58:51.808Z,3.05
2022-11-05T21:01:19.484Z,3.20
2022-11-05T21:03:46.843Z,4.45
2022-11-05T21:06:14.167Z,3.58
2022-11-05T21:08:40.686Z,4.90
2022-11-05T21:11:07.622Z,3.40
2022-11-05T21:13:34.653Z,3.63
2022-11-05T21:16:01.549Z,3.88
2022-11-05T21:18:31.002Z,3.55
2022-11-05T21:20:59.785Z,3.20
2022-11-05T21:23:29.236Z,2.70
2022-11-05T21:25:55.898Z,2.83
2022-11-05T21:28:22.810Z,2.70
2022-11-05T21:30:49.413Z,3.28
2022-11-05T21:33:17.975Z,2.75
2022-11-05T21:35:49.015Z,2.88
2022-11-05T21:38:17.192Z,3.20
2022-11-05T21:40:44.771Z,3.13
2022-11-05T21:43:11.938Z,3.05
2022-11-05T21:45:39.850Z,3.25
2022-11-05T21:48:07.643Z,2.70
2022-11-05T21:50:53.437Z,2.80
2022-11-05T21:53:38.611Z,2.65
2022-11-05T21:56:43.333Z,2.92
2022-11-05T21:59:34.276Z,2.40
2022-11-05T22:02:03.738Z,2.60
2022-11-05T22:04:32.569Z,2.60
2022-11-05T22:06:59.035Z,2.55
2022-11-05T22:09:26.032Z,2.75
2022-11-05T22:11:52.784Z,2.55
2022-11-05T22:14:19.237Z,2.72
2022-11-05T22:16:45.723Z,2.80
2022-11-05T22:19:12.609Z,2.30
2022-11-05T22:21:39.111Z,2.45
2022-11-05T22:24:05.992Z,2.42
2022-11-05T22:26:32.853Z,2.90
2022-11-05T22:28:59.554Z,2.27
2022-11-05T22:31:26.037Z,3.13
2022-11-05T22:33:52.650Z,2.60
2022-11-05T22:36:19.338Z,2.67
2022-11-05T22:38:45.909Z,3.00
2022-11-05T22:41:15.810Z,2.23
2022-11-05T22:43:42.370Z,1.92
2022-11-05T22:46:14.836Z,2.33
2022-11-05T22:48:42.138Z,2.05
2022-11-05T22:51:11.557Z,2.40
2022-11-05T22:53:39.000Z,2.20
2022-11-05T22:56:07.884Z,2.30
2022-11-05T22:58:35.061Z,2.35
2022-11-05T23:01:02.231Z,2.50
2022-11-05T23:03:30.175Z,2.63
2022-11-05T23:05:58.486Z,1.87
2022-11-05T23:08:43.836Z,1.95
2022-11-05T23:11:35.388Z,2.70
2022-11-05T23:14:02.717Z,2.50
2022-11-05T23:17:04.750Z,2.20
2022-11-05T23:19:49.899Z,2.53
2022-11-05T23:22:43.857Z,1.88
2022-11-05T23:25:13.925Z,1.90
2022-11-05T23:27:41.377Z,2.30
2022-11-05T23:30:13.004Z,2.30
2022-11-05T23:32:39.549Z,1.97
2022-11-05T23:35:06.908Z,2.08
2022-11-05T23:37:52.059Z,2.25
2022-11-05T23:40:24.905Z,1.90
2022-11-05T23:43:10.411Z,2.00
2022-11-05T23:45:54.780Z,2.53
2022-11-05T23:48:30.135Z,2.55
2022-11-05T23:51:09.642Z,2.47
2022-11-05T23:53:39.919Z,2.25
2022-11-05T23:56:11.500Z,2.20
2022-11-05T23:58:39.068Z,2.23
